createdAt,value
2019-04-04T00:05:03.142Z,3.10
2019-04-04T00:11:07.446Z,3.00
2019-04-04T00:17:12.884Z,3.00
2019-04-04T00:23:17.134Z,3.00
2019-04-04T00:29:21.342Z,3.00
2019-04-04T00:35:25.654Z,2.90
2019-04-04T00:41:29.920Z,2.80
2019-04-04T00:47:34.215Z,2.80
2019-04-04T00:53:38.888Z,2.70
2019-04-04T00:59:43.098Z,2.60
2019-04-04T01:05:47.396Z,2.60
2019-04-04T01:11:51.833Z,2.40
2019-04-04T01:17:56.280Z,2.40
2019-04-04T01:24:00.782Z,2.30
2019-04-04T01:30:06.622Z,2.30
2019-04-04T01:36:10.812Z,2.20
2019-04-04T01:42:14.999Z,2.20
2019-04-04T01:48:19.378Z,2.10
2019-04-04T01:54:23.620Z,2.10
2019-04-04T02:00:27.815Z,2.10
2019-04-04T02:06:32.037Z,2.10
2019-04-04T02:12:38.523Z,2.10
2019-04-04T02:18:42.222Z,1.80
2019-04-04T02:24:46.473Z,1.70
2019-04-04T02:30:50.745Z,1.70
2019-04-04T02:36:54.963Z,1.70
2019-04-04T02:42:59.435Z,1.70
2019-04-04T02:49:06.446Z,1.80
2019-04-04T02:55:10.653Z,1.80
2019-04-04T03:01:14.996Z,1.70
2019-04-04T03:07:19.159Z,1.70
2019-04-04T03:13:23.639Z,1.60
2019-04-04T03:19:27.825Z,1.50
2019-04-04T03:25:32.067Z,1.40
2019-04-04T03:31:38.484Z,1.40
2019-04-04T03:37:45.945Z,1.60
2019-04-04T03:43:49.114Z,1.50
2019-04-04T03:49:56.498Z,1.40
2019-04-04T03:56:01.265Z,1.40
2019-04-04T04:02:05.486Z,1.30
2019-04-04T04:08:09.684Z,1.20
2019-04-04T04:14:14.077Z,1.20
2019-04-04T04:20:18.256Z,1.20
2019-04-04T04:26:22.589Z,1.20
2019-04-04T04:32:26.840Z,1.20
2019-04-04T04:38:31.116Z,1.30
2019-04-04T04:44:37.668Z,1.20
2019-04-04T04:50:41.258Z,1.20
2019-04-04T04:56:45.534Z,1.20
2019-04-04T05:02:52.788Z,1.30
2019-04-04T05:08:55.727Z,1.10
2019-04-04T05:15:01.278Z,1.10
2019-04-04T05:21:05.867Z,1.10
2019-04-04T05:27:10.239Z,1.10
2019-04-04T05:33:14.482Z,1.10
2019-04-04T05:39:19.450Z,1.10
2019-04-04T05:45:23.763Z,1.10
2019-04-04T05:51:28.041Z,1.10
2019-04-04T05:57:32.202Z,1.10
2019-04-04T06:03:36.425Z,1.30
2019-04-04T06:09:42.004Z,1.40
2019-04-04T06:15:46.405Z,1.60
2019-04-04T06:21:50.574Z,1.80
2019-04-04T06:27:54.971Z,2.10
2019-04-04T06:33:59.239Z,2.50
2019-04-04T06:40:03.727Z,2.80
2019-04-04T06:46:07.913Z,3.30
2019-04-04T06:52:12.091Z,3.60
2019-04-04T06:58:17.144Z,4.20
2019-04-04T07:04:21.553Z,4.60
2019-04-04T07:10:25.745Z,5.20
2019-04-04T07:16:30.151Z,5.60
2019-04-04T07:22:34.328Z,6.30
2019-04-04T07:28:38.631Z,7.40
2019-04-04T07:34:45.052Z,7.80
2019-04-04T07:40:48.776Z,7.80
2019-04-04T07:46:52.972Z,8.00
2019-04-04T07:52:57.152Z,9.00
2019-04-04T07:59:01.577Z,9.00
2019-04-04T08:05:06.480Z,9.20
2019-04-04T08:11:13.214Z,9.80
2019-04-04T08:17:18.910Z,10.40
2019-04-04T08:23:22.693Z,11.00
2019-04-04T08:29:26.891Z,11.30
2019-04-04T08:35:31.099Z,11.90
2019-04-04T08:41:35.396Z,12.40
2019-04-04T08:47:39.752Z,12.20
2019-04-04T08:53:43.924Z,12.40
2019-04-04T08:59:48.220Z,12.90
2019-04-04T09:05:52.471Z,13.00
2019-04-04T09:11:56.750Z,13.10
2019-04-04T09:18:01.365Z,13.40
2019-04-04T09:24:05.545Z,12.60
2019-04-04T09:30:10.220Z,13.00
2019-04-04T09:36:14.386Z,12.90
2019-04-04T09:42:18.647Z,13.60
2019-04-04T09:48:22.853Z,13.40
2019-04-04T09:54:27.266Z,13.00
2019-04-04T10:00:31.568Z,12.20
2019-04-04T10:06:35.756Z,12.70
2019-04-04T10:12:39.934Z,12.80
2019-04-04T10:18:44.255Z,13.00
2019-04-04T10:24:48.407Z,13.60
2019-04-04T10:30:52.875Z,12.60
2019-04-04T10:36:57.069Z,12.90
2019-04-04T10:43:01.462Z,13.50
2019-04-04T10:49:08.249Z,13.80
2019-04-04T10:55:11.710Z,13.40
2019-04-04T11:01:16.001Z,13.60
2019-04-04T11:07:20.180Z,12.90
2019-04-04T11:13:33.467Z,13.60
2019-04-04T11:19:31.280Z,13.90
2019-04-04T11:25:35.891Z,14.00
2019-04-04T11:31:40.075Z,14.40
2019-04-04T11:37:44.338Z,14.10
2019-04-04T11:43:48.575Z,13.10
2019-04-04T11:49:52.859Z,13.20
2019-04-04T11:55:57.123Z,13.70
2019-04-04T12:02:01.482Z,14.20
2019-04-04T12:08:05.691Z,14.30
2019-04-04T12:14:10.012Z,14.30
2019-04-04T12:20:14.834Z,13.90
2019-04-04T12:26:19.029Z,14.50
2019-04-04T12:32:23.273Z,14.40
2019-04-04T12:38:27.548Z,14.30
2019-04-04T12:44:31.794Z,14.10
2019-04-04T12:50:36.012Z,14.30
2019-04-04T12:56:40.428Z,14.70
2019-04-04T13:02:44.616Z,13.30
2019-04-04T13:08:48.952Z,13.80
2019-04-04T13:14:53.172Z,14.60
2019-04-04T13:20:57.496Z,14.70
2019-04-04T13:27:01.702Z,14.90
2019-04-04T13:33:06.020Z,15.10
2019-04-04T13:39:11.092Z,15.10
2019-04-04T13:45:15.346Z,15.00
2019-04-04T13:51:21.136Z,15.10
2019-04-04T13:57:25.556Z,14.70
2019-04-04T14:03:29.986Z,14.60
2019-04-04T14:09:34.352Z,14.80
2019-04-04T14:15:38.624Z,15.40
2019-04-04T14:21:42.919Z,15.10
2019-04-04T14:27:47.194Z,15.40
2019-04-04T14:33:51.406Z,14.00
2019-04-04T14:39:55.626Z,14.00
2019-04-04T14:45:59.883Z,13.60
2019-04-04T14:52:04.089Z,14.70
2019-04-04T14:58:08.283Z,15.10
2019-04-04T15:04:12.760Z,14.70
2019-04-04T15:10:17.049Z,15.10
2019-04-04T15:16:21.243Z,15.10
2019-04-04T15:22:25.648Z,15.40
2019-04-04T15:28:29.957Z,14.30
2019-04-04T15:34:34.131Z,14.20
2019-04-04T15:40:38.335Z,13.50
2019-04-04T15:46:42.537Z,13.60
2019-04-04T15:52:46.967Z,14.60
2019-04-04T15:58:51.463Z,13.70
2019-04-04T16:04:55.678Z,13.10
2019-04-04T16:10:59.926Z,12.50
2019-04-04T16:17:04.149Z,13.30
2019-04-04T16:23:08.334Z,13.60
2019-04-04T16:29:12.524Z,13.20
2019-04-04T16:35:16.721Z,12.20
2019-04-04T16:41:21.068Z,12.70
2019-04-04T16:47:25.280Z,12.20
2019-04-04T16:53:30.024Z,12.20
2019-04-04T16:59:34.366Z,11.90
2019-04-04T17:05:39.572Z,12.20
2019-04-04T17:11:43.830Z,11.40
2019-04-04T17:17:48.054Z,11.30
2019-04-04T17:23:52.232Z,11.20
2019-04-04T17:29:56.741Z,11.00
2019-04-04T17:36:01.339Z,10.90
2019-04-04T17:42:05.798Z,10.80
2019-04-04T17:48:10.070Z,10.60
2019-04-04T17:54:14.401Z,10.50
2019-04-04T18:00:20.719Z,10.30
2019-04-04T18:06:25.006Z,10.20
2019-04-04T18:12:39.621Z,9.90
2019-04-04T18:18:35.726Z,9.70
2019-04-04T18:24:41.833Z,9.50
2019-04-04T18:30:46.484Z,9.40
2019-04-04T18:36:50.904Z,9.10
2019-04-04T18:42:55.109Z,9.00
2019-04-04T18:48:59.306Z,8.70
2019-04-04T18:55:03.571Z,8.60
2019-04-04T19:01:08.153Z,8.50
2019-04-04T19:07:12.573Z,8.40
2019-04-04T19:13:16.967Z,8.30
2019-04-04T19:19:21.369Z,8.10
2019-04-04T19:25:26.753Z,8.10
2019-04-04T19:31:31.031Z,8.00
2019-04-04T19:37:35.359Z,7.80
2019-04-04T19:43:39.595Z,7.70
2019-04-04T19:49:43.926Z,7.60
2019-04-04T19:55:48.165Z,7.60
2019-04-04T20:01:52.522Z,7.60
2019-04-04T20:07:56.844Z,7.50
2019-04-04T20:14:01.066Z,7.50
2019-04-04T20:20:06.194Z,7.40
2019-04-04T20:26:10.611Z,7.30
2019-04-04T20:32:14.933Z,7.20
2019-04-04T20:38:19.196Z,7.00
2019-04-04T20:44:23.442Z,7.10
2019-04-04T20:50:27.717Z,7.00
2019-04-04T20:56:31.912Z,6.90
2019-04-04T21:02:36.250Z,6.80
2019-04-04T21:08:40.478Z,6.70
2019-04-04T21:14:44.798Z,6.70
2019-04-04T21:20:48.982Z,6.60
2019-04-04T21:26:53.421Z,6.50
2019-04-04T21:32:57.890Z,6.40
2019-04-04T21:39:02.202Z,6.30
2019-04-04T21:45:07.605Z,6.10
2019-04-04T21:51:11.953Z,6.00
2019-04-04T21:57:16.479Z,6.00
2019-04-04T22:03:20.999Z,5.80
2019-04-04T22:09:25.414Z,5.70
2019-04-04T22:15:29.788Z,5.80
2019-04-04T22:21:34.235Z,5.70
2019-04-04T22:27:38.663Z,5.60
2019-04-04T22:33:42.980Z,5.50
2019-04-04T22:39:47.321Z,5.50
2019-04-04T22:45:51.662Z,5.40
2019-04-04T22:51:56.238Z,5.30
2019-04-04T22:58:00.630Z,5.30
2019-04-04T23:04:05.326Z,5.30
2019-04-04T23:10:11.614Z,5.30
2019-04-04T23:16:17.112Z,5.10
2019-04-04T23:22:21.930Z,5.10
2019-04-04T23:28:26.685Z,5.00
2019-04-04T23:34:31.480Z,5.00
2019-04-04T23:40:36.233Z,4.90
2019-04-04T23:46:41.025Z,4.80
2019-04-04T23:52:45.748Z,4.70
2019-04-04T23:58:50.446Z,4.70
